createdAt,value
2023-10-21T00:01:42.885Z,44.80
2023-10-21T00:04:10.070Z,49.70
2023-10-21T00:06:37.173Z,47.90
2023-10-21T00:09:04.284Z,46.80
2023-10-21T00:11:31.859Z,42.70
2023-10-21T00:13:58.856Z,42.30
2023-10-21T00:16:26.009Z,42.10
2023-10-21T00:18:53.213Z,43.80
2023-10-21T00:21:20.206Z,40.60
2023-10-21T00:23:47.333Z,39.70
2023-10-21T00:26:17.403Z,40.70
2023-10-21T00:28:44.399Z,42.40
2023-10-21T00:31:11.469Z,42.60
2023-10-21T00:33:38.500Z,41.30
2023-10-21T00:36:05.867Z,40.70
2023-10-21T00:38:33.354Z,39.20
2023-10-21T00:41:00.349Z,41.20
2023-10-21T00:43:42.807Z,38.30
2023-10-21T00:46:18.015Z,39.70
2023-10-21T00:48:46.781Z,40.50
2023-10-21T00:51:15.779Z,39.40
2023-10-21T00:54:05.277Z,40.70
2023-10-21T00:56:33.829Z,40.80
2023-10-21T00:59:02.655Z,41.30
2023-10-21T01:01:31.122Z,42.50
2023-10-21T01:03:59.730Z,41.20
2023-10-21T01:06:31.034Z,41.40
2023-10-21T01:09:00.842Z,42.40
2023-10-21T01:11:29.338Z,39.80
2023-10-21T01:13:57.807Z,44.60
2023-10-21T01:16:26.328Z,42.30
2023-10-21T01:18:54.736Z,40.00
2023-10-21T01:21:23.209Z,43.80
2023-10-21T01:23:51.984Z,40.30
2023-10-21T01:26:20.346Z,38.50
2023-10-21T01:28:48.822Z,41.30
2023-10-21T01:31:17.302Z,38.90
2023-10-21T01:33:46.026Z,36.80
2023-10-21T01:36:14.638Z,35.70
2023-10-21T01:38:43.076Z,35.50
2023-10-21T01:41:11.770Z,35.60
2023-10-21T01:43:41.330Z,33.90
2023-10-21T01:46:09.877Z,32.30
2023-10-21T01:48:38.260Z,34.50
2023-10-21T01:51:06.764Z,31.30
2023-10-21T01:53:35.535Z,33.70
2023-10-21T01:56:04.864Z,32.20
2023-10-21T01:58:33.527Z,31.90
2023-10-21T02:01:09.385Z,31.50
2023-10-21T02:03:39.012Z,29.80
2023-10-21T02:06:08.753Z,30.20
2023-10-21T02:08:37.348Z,28.30
2023-10-21T02:11:05.673Z,31.10
2023-10-21T02:13:34.021Z,31.60
2023-10-21T02:16:02.715Z,31.10
2023-10-21T02:18:31.336Z,29.30
2023-10-21T02:20:59.842Z,28.50
2023-10-21T02:23:28.360Z,28.00
2023-10-21T02:26:03.028Z,27.90
2023-10-21T02:28:31.969Z,30.30
2023-10-21T02:31:04.684Z,25.60
2023-10-21T02:33:33.410Z,28.10
2023-10-21T02:36:02.476Z,25.30
2023-10-21T02:38:31.703Z,27.70
2023-10-21T02:41:00.295Z,27.80
2023-10-21T02:43:28.655Z,28.70
2023-10-21T02:45:57.202Z,26.60
2023-10-21T02:48:25.805Z,24.60
2023-10-21T02:50:54.744Z,22.80
2023-10-21T02:53:23.148Z,24.70
2023-10-21T02:55:51.881Z,23.70
2023-10-21T02:58:21.485Z,25.70
2023-10-21T03:00:49.944Z,26.70
2023-10-21T03:03:18.535Z,23.10
2023-10-21T03:05:47.060Z,26.50
2023-10-21T03:08:15.758Z,25.20
2023-10-21T03:10:44.302Z,24.80
2023-10-21T03:13:12.729Z,25.50
2023-10-21T03:15:41.252Z,22.80
2023-10-21T03:18:09.791Z,23.10
2023-10-21T03:20:38.542Z,23.80
2023-10-21T03:23:06.932Z,22.60
2023-10-21T03:25:35.688Z,24.20
2023-10-21T03:28:04.804Z,22.30
2023-10-21T03:30:33.242Z,22.60
2023-10-21T03:33:01.904Z,22.10
2023-10-21T03:35:30.285Z,22.70
2023-10-21T03:37:58.836Z,22.70
2023-10-21T03:40:29.097Z,23.50
2023-10-21T03:42:57.401Z,22.40
2023-10-21T03:45:25.777Z,23.40
2023-10-21T03:47:54.664Z,22.60
2023-10-21T03:50:23.124Z,20.10
2023-10-21T03:52:51.460Z,21.30
2023-10-21T03:55:19.953Z,21.90
2023-10-21T03:57:50.756Z,21.40
2023-10-21T04:00:19.829Z,22.50
2023-10-21T04:02:50.592Z,19.90
2023-10-21T04:05:19.707Z,22.60
2023-10-21T04:07:48.130Z,22.10
2023-10-21T04:10:16.802Z,22.60
2023-10-21T04:12:45.128Z,22.20
2023-10-21T04:15:13.794Z,19.90
2023-10-21T04:17:42.393Z,21.30
2023-10-21T04:20:11.663Z,21.70
2023-10-21T04:22:41.350Z,20.10
2023-10-21T04:25:10.487Z,22.40
2023-10-21T04:27:39.212Z,20.90
2023-10-21T04:30:09.430Z,26.50
2023-10-21T04:32:37.974Z,22.60
2023-10-21T04:35:06.684Z,23.80
2023-10-21T04:37:35.805Z,24.00
2023-10-21T04:40:05.693Z,24.40
2023-10-21T04:42:34.056Z,22.80
2023-10-21T04:45:03.049Z,23.30
2023-10-21T04:47:31.472Z,23.60
2023-10-21T04:49:59.883Z,24.20
2023-10-21T04:52:28.634Z,22.40
2023-10-21T04:54:57.041Z,24.10
2023-10-21T04:57:25.632Z,21.10
2023-10-21T04:59:54.053Z,21.60
2023-10-21T05:02:22.563Z,21.40
2023-10-21T05:04:54.079Z,23.40
2023-10-21T05:07:22.495Z,22.60
2023-10-21T05:09:51.310Z,24.80
2023-10-21T05:12:20.873Z,23.60
2023-10-21T05:14:49.404Z,24.40
2023-10-21T05:17:18.497Z,22.30
2023-10-21T05:19:47.177Z,22.70
2023-10-21T05:22:15.513Z,23.20
2023-10-21T05:24:44.109Z,22.20
2023-10-21T05:27:12.651Z,25.00
2023-10-21T05:29:40.992Z,22.40
2023-10-21T05:32:09.743Z,22.00
2023-10-21T05:34:40.669Z,24.60
2023-10-21T05:37:09.494Z,22.20
2023-10-21T05:39:38.187Z,23.30
2023-10-21T05:42:06.982Z,20.70
2023-10-21T05:44:48.416Z,22.00
2023-10-21T05:47:18.092Z,21.70
2023-10-21T05:49:46.527Z,22.90
2023-10-21T05:52:16.328Z,23.00
2023-10-21T05:54:44.813Z,22.00
2023-10-21T05:57:14.538Z,20.90
2023-10-21T05:59:42.951Z,20.70
2023-10-21T06:02:12.935Z,19.90
2023-10-21T06:04:41.422Z,20.60
2023-10-21T06:07:09.847Z,20.50
2023-10-21T06:09:38.452Z,20.80
2023-10-21T06:12:07.764Z,20.20
2023-10-21T06:14:36.651Z,20.40
2023-10-21T06:17:05.139Z,21.00
2023-10-21T06:19:33.908Z,20.30
2023-10-21T06:22:03.584Z,19.60
2023-10-21T06:24:32.039Z,21.10
2023-10-21T06:27:02.371Z,21.10
2023-10-21T06:29:31.516Z,20.50
2023-10-21T06:31:59.903Z,21.20
2023-10-21T06:34:28.291Z,20.80
2023-10-21T06:36:56.919Z,22.90
2023-10-21T06:39:26.621Z,20.00
2023-10-21T06:41:55.356Z,19.90
2023-10-21T06:44:24.838Z,22.40
2023-10-21T06:46:53.157Z,20.50
2023-10-21T06:49:21.650Z,24.20
2023-10-21T06:51:50.716Z,22.60
2023-10-21T06:54:19.195Z,25.00
2023-10-21T06:56:48.173Z,24.90
2023-10-21T06:59:16.669Z,33.70
2023-10-21T07:01:45.086Z,26.20
2023-10-21T07:04:15.305Z,24.40
2023-10-21T07:06:43.885Z,20.70
2023-10-21T07:09:12.879Z,21.90
2023-10-21T07:11:41.619Z,21.30
2023-10-21T07:14:10.019Z,23.60
2023-10-21T07:16:39.729Z,23.40
2023-10-21T07:19:08.121Z,22.90
2023-10-21T07:21:37.188Z,21.90
2023-10-21T07:24:06.522Z,21.10
2023-10-21T07:26:35.745Z,21.40
2023-10-21T07:29:04.508Z,21.70
2023-10-21T07:31:32.884Z,20.30
2023-10-21T07:34:02.375Z,21.30
2023-10-21T07:36:30.899Z,19.70
2023-10-21T07:38:59.340Z,20.40
2023-10-21T07:41:27.736Z,20.60
2023-10-21T07:43:56.189Z,19.50
2023-10-21T07:46:24.553Z,20.70
2023-10-21T07:48:52.922Z,21.20
2023-10-21T07:51:21.387Z,20.70
2023-10-21T07:53:49.787Z,23.00
2023-10-21T07:56:18.412Z,21.80
2023-10-21T07:58:46.936Z,23.00
2023-10-21T08:01:15.569Z,19.40
2023-10-21T08:03:45.691Z,18.80
2023-10-21T08:06:16.026Z,21.60
2023-10-21T08:08:44.566Z,18.50
2023-10-21T08:11:12.917Z,19.30
2023-10-21T08:13:41.349Z,21.70
2023-10-21T08:16:09.910Z,32.20
2023-10-21T08:18:39.264Z,28.30
2023-10-21T08:21:11.333Z,21.30
2023-10-21T08:23:40.345Z,22.40
2023-10-21T08:26:08.888Z,22.10
2023-10-21T08:28:37.397Z,23.70
2023-10-21T08:31:06.162Z,21.00
2023-10-21T08:33:35.114Z,22.40
2023-10-21T08:36:04.078Z,22.90
2023-10-21T08:38:34.798Z,22.40
2023-10-21T08:41:21.458Z,22.80
2023-10-21T08:43:57.309Z,23.60
2023-10-21T08:46:36.652Z,23.20
2023-10-21T08:49:31.498Z,23.10
2023-10-21T08:52:11.114Z,23.50
2023-10-21T08:54:45.162Z,22.90
2023-10-21T08:57:36.839Z,22.60
2023-10-21T09:00:33.114Z,23.80
2023-10-21T09:03:12.104Z,22.00
2023-10-21T09:06:29.848Z,20.70
2023-10-21T09:09:30.711Z,21.90
2023-10-21T09:12:29.185Z,22.00
2023-10-21T09:15:18.581Z,21.30
2023-10-21T09:18:12.934Z,21.60
2023-10-21T09:20:50.397Z,21.10
2023-10-21T09:23:24.413Z,21.00
2023-10-21T09:25:57.806Z,22.00
2023-10-21T09:28:31.896Z,21.30
2023-10-21T09:31:09.882Z,20.70
2023-10-21T09:33:57.198Z,23.00
2023-10-21T09:36:40.292Z,20.90
2023-10-21T09:39:17.919Z,20.20
2023-10-21T09:41:52.841Z,21.20
2023-10-21T09:44:27.155Z,19.50
2023-10-21T09:47:54.252Z,20.50
2023-10-21T09:50:26.476Z,21.30
2023-10-21T09:53:14.020Z,21.40
2023-10-21T09:55:50.346Z,20.70
2023-10-21T09:58:20.829Z,20.70
2023-10-21T10:01:31.702Z,20.60
2023-10-21T10:04:24.482Z,20.70
2023-10-21T10:07:14.665Z,18.70
2023-10-21T10:13:16.067Z,15.90
2023-10-21T10:15:58.518Z,17.90
2023-10-21T10:18:30.873Z,18.20
2023-10-21T10:21:00.207Z,18.60
2023-10-21T10:23:30.863Z,17.30
2023-10-21T10:26:02.621Z,16.50
2023-10-21T10:28:32.721Z,16.00
2023-10-21T10:31:01.804Z,17.10
2023-10-21T10:33:35.407Z,16.30
2023-10-21T10:36:14.194Z,14.20
2023-10-21T10:38:46.767Z,15.10
2023-10-21T10:41:20.100Z,14.90
2023-10-21T10:44:03.270Z,13.60
2023-10-21T10:46:32.781Z,12.70
2023-10-21T10:49:09.093Z,11.40
2023-10-21T10:51:46.942Z,10.60
2023-10-21T10:54:21.232Z,11.30
2023-10-21T10:56:50.406Z,10.90
2023-10-21T10:59:20.375Z,11.20
2023-10-21T11:01:59.810Z,10.30
2023-10-21T11:04:31.328Z,10.90
2023-10-21T11:06:59.876Z,11.00
2023-10-21T11:09:32.452Z,10.60
2023-10-21T11:15:17.830Z,12.60
2023-10-21T11:17:50.175Z,10.10
2023-10-21T11:20:20.328Z,10.40
2023-10-21T11:22:48.735Z,10.80
2023-10-21T11:42:04.598Z,8.90
2023-10-21T11:44:33.113Z,7.90
2023-10-21T12:05:31.518Z,2.40
2023-10-21T12:08:26.179Z,2.50
2023-10-21T12:10:57.029Z,2.40
2023-10-21T12:13:28.362Z,2.20
2023-10-21T12:16:16.942Z,2.20
2023-10-21T12:18:48.265Z,2.60
2023-10-21T12:21:39.319Z,2.40
2023-10-21T12:24:26.534Z,2.50
2023-10-21T12:29:32.156Z,2.70
2023-10-21T12:32:19.160Z,2.90
2023-10-21T12:35:06.760Z,2.40
2023-10-21T12:37:50.390Z,2.60
2023-10-21T12:40:31.291Z,2.30
2023-10-21T12:43:16.182Z,2.30
2023-10-21T12:45:50.829Z,2.80
2023-10-21T12:48:19.906Z,1.90
2023-10-21T12:50:52.792Z,2.20
2023-10-21T12:53:21.467Z,2.40
2023-10-21T12:55:49.905Z,2.30
2023-10-21T12:58:18.402Z,2.20
2023-10-21T13:00:46.888Z,2.30
2023-10-21T13:03:15.418Z,1.90
2023-10-21T13:05:51.123Z,2.20
2023-10-21T13:08:20.233Z,1.80
2023-10-21T13:10:49.288Z,3.10
2023-10-21T13:13:19.524Z,2.20
2023-10-21T13:15:48.838Z,2.60
2023-10-21T13:18:20.188Z,4.10
2023-10-21T13:20:48.798Z,3.00
2023-10-21T13:23:17.805Z,2.40
2023-10-21T13:25:46.196Z,2.60
2023-10-21T13:28:14.570Z,2.60
2023-10-21T13:30:44.711Z,2.10
2023-10-21T13:33:13.270Z,2.70
2023-10-21T13:35:43.275Z,2.30
2023-10-21T13:38:12.738Z,2.60
2023-10-21T13:40:41.234Z,2.20
2023-10-21T13:43:11.471Z,2.00
2023-10-21T13:45:39.847Z,2.00
2023-10-21T13:48:12.608Z,1.90
2023-10-21T13:50:42.283Z,2.20
2023-10-21T13:53:13.390Z,2.40
2023-10-21T13:55:44.326Z,1.70
2023-10-21T13:58:16.269Z,1.50
2023-10-21T14:00:45.325Z,1.40
2023-10-21T14:03:22.135Z,1.60
2023-10-21T14:05:53.274Z,1.50
2023-10-21T14:08:28.691Z,2.00
2023-10-21T14:11:06.965Z,1.60
2023-10-21T14:13:35.640Z,1.90
2023-10-21T14:16:07.558Z,1.80
2023-10-21T14:18:36.570Z,1.40
2023-10-21T14:21:09.143Z,1.60
2023-10-21T14:23:37.942Z,1.80
2023-10-21T14:26:08.941Z,1.40
2023-10-21T14:28:41.896Z,1.50
2023-10-21T14:31:11.241Z,1.60
2023-10-21T14:42:42.933Z,1.80
2023-10-21T14:51:17.341Z,1.80
2023-10-21T14:53:47.597Z,1.90
2023-10-21T14:56:25.471Z,1.60
2023-10-21T14:58:59.266Z,1.50
2023-10-21T15:01:28.485Z,1.70
2023-10-21T15:03:57.724Z,2.40
2023-10-21T15:06:31.916Z,3.00
2023-10-21T15:09:00.423Z,2.50
2023-10-21T15:11:29.876Z,5.30
2023-10-21T15:14:00.465Z,2.10
2023-10-21T15:16:29.350Z,2.30
2023-10-21T15:18:57.770Z,9.30
2023-10-21T15:21:26.251Z,4.00
2023-10-21T15:23:54.623Z,2.20
2023-10-21T15:26:23.049Z,3.00
2023-10-21T15:28:51.386Z,2.00
2023-10-21T15:31:19.809Z,2.50
2023-10-21T15:33:51.027Z,12.70
2023-10-21T15:36:19.500Z,2.80
2023-10-21T15:38:53.594Z,2.00
2023-10-21T15:41:28.985Z,1.90
2023-10-21T15:44:00.430Z,2.10
2023-10-21T15:46:28.904Z,2.10
2023-10-21T15:48:57.725Z,2.40
2023-10-21T15:51:26.380Z,6.40
2023-10-21T15:53:54.888Z,3.70
2023-10-21T15:56:23.234Z,3.10
2023-10-21T15:58:51.627Z,8.10
2023-10-21T16:01:20.278Z,7.30
2023-10-21T16:03:49.013Z,8.60
2023-10-21T16:06:18.199Z,6.00
2023-10-21T16:08:46.854Z,5.00
2023-10-21T16:11:15.426Z,7.40
2023-10-21T16:13:55.542Z,5.50
2023-10-21T16:16:25.070Z,5.90
2023-10-21T16:18:53.900Z,7.70
2023-10-21T16:21:22.845Z,10.60
2023-10-21T16:24:05.199Z,10.80
2023-10-21T16:26:33.736Z,9.10
2023-10-21T16:29:02.095Z,9.10
2023-10-21T16:31:30.619Z,11.20
2023-10-21T16:33:59.332Z,11.60
2023-10-21T16:36:27.857Z,9.80
2023-10-21T16:38:56.730Z,12.10
2023-10-21T16:41:25.403Z,10.50
2023-10-21T16:43:54.559Z,10.40
2023-10-21T16:46:24.637Z,8.70
2023-10-21T16:48:53.107Z,9.30
2023-10-21T16:51:21.871Z,10.10
2023-10-21T16:53:50.327Z,12.50
2023-10-21T16:56:19.010Z,11.30
2023-10-21T16:58:47.733Z,10.40
2023-10-21T17:01:18.609Z,8.90
2023-10-21T17:03:47.222Z,9.80
2023-10-21T17:06:35.944Z,10.60
2023-10-21T17:09:14.355Z,10.10
2023-10-21T17:14:41.423Z,16.90
2023-10-21T17:18:19.528Z,13.20
2023-10-21T17:24:26.126Z,13.30
2023-10-21T17:26:56.105Z,12.90
2023-10-21T17:29:24.555Z,20.90
2023-10-21T17:31:53.087Z,16.50
2023-10-21T17:34:24.259Z,13.70
2023-10-21T17:36:52.936Z,14.80
2023-10-21T17:39:27.625Z,12.80
2023-10-21T17:48:57.590Z,18.20
2023-10-21T17:51:26.139Z,16.50
2023-10-21T17:54:31.844Z,19.50
2023-10-21T17:57:30.840Z,15.30
2023-10-21T18:06:36.515Z,21.60
2023-10-21T18:10:13.088Z,20.10
2023-10-21T18:12:41.573Z,18.10
2023-10-21T18:15:11.963Z,14.40
2023-10-21T18:20:56.224Z,20.70
2023-10-21T18:23:24.811Z,22.80
2023-10-21T18:29:58.246Z,25.40
2023-10-21T18:32:26.846Z,21.40
2023-10-21T18:34:55.228Z,20.30
2023-10-21T18:37:23.595Z,20.20
2023-10-21T18:39:52.060Z,18.60
2023-10-21T18:42:21.169Z,19.10
2023-10-21T18:44:49.903Z,19.00
2023-10-21T18:47:18.269Z,19.10
2023-10-21T18:49:46.757Z,17.20
2023-10-21T18:52:17.549Z,11.30
2023-10-21T18:54:51.664Z,11.00
2023-10-21T18:57:20.151Z,10.70
2023-10-21T18:59:49.024Z,13.20
2023-10-21T19:02:19.970Z,42.00
2023-10-21T19:04:48.713Z,38.20
2023-10-21T19:07:17.248Z,17.10
2023-10-21T19:09:45.659Z,18.40
2023-10-21T19:12:14.185Z,11.50
2023-10-21T19:14:42.669Z,14.90
2023-10-21T19:17:11.597Z,18.10
2023-10-21T19:19:40.021Z,16.50
2023-10-21T19:22:08.681Z,15.80
2023-10-21T19:24:37.381Z,17.60
2023-10-21T19:27:06.022Z,15.80
2023-10-21T19:29:36.691Z,15.00
2023-10-21T19:32:06.213Z,18.00
2023-10-21T19:34:34.978Z,15.60
2023-10-21T19:37:05.428Z,13.10
2023-10-21T19:39:34.267Z,16.10
2023-10-21T19:42:05.268Z,16.30
2023-10-21T19:44:34.106Z,14.80
2023-10-21T19:47:05.454Z,15.90
2023-10-21T19:49:35.134Z,16.90
2023-10-21T19:52:04.478Z,15.10
2023-10-21T19:54:33.662Z,15.00
2023-10-21T19:57:02.703Z,17.00
2023-10-21T19:59:31.245Z,19.70
2023-10-21T20:01:59.996Z,33.80
2023-10-21T20:04:28.817Z,42.70
2023-10-21T20:06:58.753Z,45.80
2023-10-21T20:09:27.772Z,42.20
2023-10-21T20:11:56.448Z,32.80
2023-10-21T20:14:25.682Z,41.80
2023-10-21T20:16:54.644Z,39.80
2023-10-21T20:19:23.545Z,54.60
2023-10-21T20:21:52.332Z,39.00
2023-10-21T20:24:21.016Z,27.10
2023-10-21T20:26:59.389Z,34.90
2023-10-21T20:29:27.770Z,29.70
2023-10-21T20:31:56.417Z,23.60
2023-10-21T20:34:25.902Z,22.20
2023-10-21T20:36:54.362Z,20.70
2023-10-21T20:39:22.912Z,19.40
2023-10-21T20:41:52.220Z,24.90
2023-10-21T20:44:20.662Z,20.70
2023-10-21T20:46:49.096Z,14.90
2023-10-21T20:49:17.539Z,13.90
2023-10-21T20:51:48.011Z,18.40
2023-10-21T20:54:16.726Z,27.60
2023-10-21T20:56:45.365Z,20.10
2023-10-21T20:59:13.867Z,18.20
2023-10-21T21:01:42.711Z,18.00
2023-10-21T21:04:11.496Z,19.00
2023-10-21T21:06:40.004Z,16.10
2023-10-21T21:09:09.145Z,18.20
2023-10-21T21:11:37.821Z,15.60
2023-10-21T21:14:06.564Z,15.50
2023-10-21T21:16:36.389Z,15.30
2023-10-21T21:19:06.299Z,18.70
2023-10-21T21:21:35.033Z,16.90
2023-10-21T21:24:06.543Z,17.90
2023-10-21T21:26:35.866Z,24.20
2023-10-21T21:29:05.466Z,52.60
2023-10-21T21:31:33.980Z,53.80
2023-10-21T21:34:02.392Z,39.70
2023-10-21T21:36:32.961Z,32.00
2023-10-21T21:39:01.532Z,39.60
2023-10-21T21:41:29.872Z,41.40
2023-10-21T21:43:58.776Z,42.90
2023-10-21T21:46:27.150Z,33.30
2023-10-21T21:48:55.709Z,27.70
2023-10-21T21:51:24.703Z,26.40
2023-10-21T21:53:53.123Z,19.90
2023-10-21T21:56:21.814Z,15.10
2023-10-21T21:58:50.565Z,14.00
2023-10-21T22:01:27.510Z,12.40
2023-10-21T22:03:57.459Z,12.60
2023-10-21T22:06:26.821Z,13.20
2023-10-21T22:08:56.016Z,24.50
2023-10-21T22:11:26.466Z,29.60
2023-10-21T22:13:55.005Z,29.10
2023-10-21T22:16:23.941Z,21.90
2023-10-21T22:18:52.716Z,16.60
2023-10-21T22:21:21.362Z,17.00
2023-10-21T22:24:01.087Z,14.70
2023-10-21T22:26:34.540Z,15.10
2023-10-21T22:29:04.633Z,17.80
2023-10-21T22:31:33.942Z,16.20
2023-10-21T22:34:02.317Z,18.90
2023-10-21T22:36:30.839Z,17.10
2023-10-21T22:38:59.439Z,18.20
2023-10-21T22:41:28.635Z,17.90
2023-10-21T22:43:57.285Z,22.60
2023-10-21T22:46:25.790Z,22.80
2023-10-21T22:48:54.392Z,20.60
2023-10-21T22:51:23.038Z,17.30
2023-10-21T22:53:52.843Z,18.80
2023-10-21T22:56:21.349Z,17.60
2023-10-21T22:58:50.256Z,18.10
2023-10-21T23:01:18.674Z,15.80
2023-10-21T23:03:47.189Z,18.30
2023-10-21T23:06:15.711Z,17.10
2023-10-21T23:08:44.713Z,17.00
2023-10-21T23:11:15.694Z,16.80
2023-10-21T23:13:44.071Z,17.60
2023-10-21T23:16:19.524Z,18.30
2023-10-21T23:18:49.204Z,24.00
2023-10-21T23:21:18.582Z,23.00
2023-10-21T23:23:48.333Z,20.40
2023-10-21T23:26:17.293Z,19.80
2023-10-21T23:28:45.639Z,21.40
2023-10-21T23:31:14.872Z,21.90
2023-10-21T23:33:43.562Z,20.60
2023-10-21T23:36:12.243Z,23.10
2023-10-21T23:38:41.758Z,26.30
2023-10-21T23:41:10.187Z,25.80
2023-10-21T23:43:39.239Z,23.90
2023-10-21T23:46:08.245Z,23.50
2023-10-21T23:48:36.822Z,23.40
2023-10-21T23:51:05.451Z,21.60
2023-10-21T23:53:35.079Z,23.30
2023-10-21T23:56:03.990Z,23.80
2023-10-21T23:58:32.428Z,21.60
